Terminal Aerodrome Forecast
Issued by NWS Wilmington, OH

Current Version | Previous Version | Graphics & Text | Print | Product List | Glossary On
Versions: 1 2 3 4 5 6 7 8 9 10 11 12 13 14 15 16 17 18 19 20
311
FTUS41 KILN 210538
TAFDAY
TAF
KDAY 210538Z 2106/2206 20005KT P6SM SCT250
     FM211300 22009KT P6SM SCT050 BKN250
     FM212000 23009KT P6SM VCSH BKN050
     FM212300 23006KT P6SM BKN050
     FM220100 22004KT P6SM BKN250=

USA.gov is the U.S. government's official web portal to all federal, state and local government web resources and services.